createdAt,value
2019-06-20T00:02:06.227Z,99274.80
2019-06-20T00:04:32.462Z,99267.89
2019-06-20T00:06:58.606Z,99272.84
2019-06-20T00:09:24.840Z,99274.27
2019-06-20T00:11:51.798Z,99279.91
2019-06-20T00:14:18.025Z,99273.48
2019-06-20T00:16:44.220Z,99271.88
2019-06-20T00:19:10.504Z,99263.55
2019-06-20T00:21:36.656Z,99265.19
2019-06-20T00:24:03.198Z,99271.11
2019-06-20T00:26:29.661Z,99269.34
2019-06-20T00:28:55.872Z,99270.09
2019-06-20T00:31:22.016Z,99271.36
2019-06-20T00:33:48.346Z,99274.97
2019-06-20T00:36:14.914Z,99269.16
2019-06-20T00:38:41.193Z,99267.73
2019-06-20T00:41:07.690Z,99258.16
2019-06-20T00:43:33.840Z,99263.88
2019-06-20T00:46:00.062Z,99262.00
2019-06-20T00:48:26.207Z,99269.59
2019-06-20T00:50:52.439Z,99270.03
2019-06-20T00:53:18.592Z,99268.53
2019-06-20T00:55:44.885Z,99262.83
2019-06-20T00:58:11.441Z,99257.69
2019-06-20T01:00:37.905Z,99258.54
2019-06-20T01:03:04.051Z,99259.18
2019-06-20T01:05:30.281Z,99255.19
2019-06-20T01:07:56.770Z,99254.12
2019-06-20T01:10:23.156Z,99246.50
2019-06-20T01:12:49.294Z,99247.50
2019-06-20T01:15:15.741Z,99242.27
2019-06-20T01:17:42.083Z,99245.09
2019-06-20T01:20:09.300Z,99244.11
2019-06-20T01:22:35.531Z,99241.70
2019-06-20T01:25:02.076Z,99233.95
2019-06-20T01:27:28.216Z,99236.47
2019-06-20T01:29:54.418Z,99233.16
2019-06-20T01:32:20.552Z,99236.79
2019-06-20T01:34:47.685Z,99236.70
2019-06-20T01:37:13.906Z,99239.61
2019-06-20T01:39:40.142Z,99237.64
2019-06-20T01:42:06.831Z,99234.41
2019-06-20T01:46:59.146Z,99233.97
2019-06-20T01:49:25.356Z,99239.06
2019-06-20T01:51:51.764Z,99229.30
2019-06-20T01:54:18.298Z,99226.82
2019-06-20T01:56:44.447Z,99222.19
2019-06-20T01:59:10.645Z,99221.17
2019-06-20T02:01:37.031Z,99218.13
2019-06-20T02:04:03.523Z,99217.27
2019-06-20T02:06:29.667Z,99233.70
2019-06-20T02:08:55.872Z,99239.15
2019-06-20T02:11:22.381Z,99235.69
2019-06-20T02:13:48.894Z,99234.55
2019-06-20T02:16:15.047Z,99230.20
2019-06-20T02:18:41.263Z,99229.85
2019-06-20T02:21:07.811Z,99227.92
2019-06-20T02:23:34.027Z,99220.62
2019-06-20T02:26:00.200Z,99223.02
2019-06-20T02:28:26.371Z,99227.70
2019-06-20T02:30:52.862Z,99224.47
2019-06-20T02:33:19.422Z,99222.88
2019-06-20T02:35:45.547Z,99227.47
2019-06-20T02:38:12.060Z,99227.92
2019-06-20T02:40:38.514Z,99224.34
2019-06-20T02:43:04.814Z,99232.23
2019-06-20T02:45:31.454Z,99241.89
2019-06-20T02:47:57.618Z,99244.28
2019-06-20T02:50:25.221Z,99240.92
2019-06-20T02:52:51.370Z,99244.11
2019-06-20T02:55:17.789Z,99245.91
2019-06-20T02:57:43.942Z,99252.72
2019-06-20T03:00:11.709Z,99244.95
2019-06-20T03:02:37.887Z,99255.38
2019-06-20T03:05:05.909Z,99249.27
2019-06-20T03:07:32.051Z,99252.64
2019-06-20T03:09:58.266Z,99251.48
2019-06-20T03:12:24.506Z,99257.05
2019-06-20T03:14:51.017Z,99253.98
2019-06-20T03:17:17.550Z,99251.33
2019-06-20T03:19:43.686Z,99252.48
2019-06-20T03:22:10.703Z,99257.56
2019-06-20T03:24:36.836Z,99248.86
2019-06-20T03:27:03.456Z,99254.49
2019-06-20T03:29:29.728Z,99264.98
2019-06-20T03:31:56.242Z,99277.74
2019-06-20T03:34:22.522Z,99292.78
2019-06-20T03:36:48.818Z,99286.09
2019-06-20T03:39:15.427Z,99275.48
2019-06-20T03:41:41.989Z,99286.78
2019-06-20T03:44:08.347Z,99281.73
2019-06-20T03:46:34.506Z,99271.62
2019-06-20T03:49:00.757Z,99271.13
2019-06-20T03:51:26.902Z,99273.27
2019-06-20T03:53:53.420Z,99268.20
2019-06-20T03:56:20.171Z,99269.77
2019-06-20T03:58:46.591Z,99260.41
2019-06-20T04:01:12.744Z,99260.98
2019-06-20T04:03:38.969Z,99265.83
2019-06-20T04:06:05.134Z,99258.45
2019-06-20T04:08:31.359Z,99259.96
2019-06-20T04:10:57.576Z,99262.89
2019-06-20T04:13:24.021Z,99266.63
2019-06-20T04:15:50.160Z,99280.91
2019-06-20T04:18:16.378Z,99287.21
2019-06-20T04:20:42.845Z,99296.37
2019-06-20T04:23:09.049Z,99295.41
2019-06-20T04:25:35.223Z,99293.16
2019-06-20T04:28:01.456Z,99291.27
2019-06-20T04:30:27.615Z,99289.63
2019-06-20T04:32:54.115Z,99295.22
2019-06-20T04:35:20.343Z,99300.05
2019-06-20T04:37:46.552Z,99312.42
2019-06-20T04:40:12.786Z,99315.27
2019-06-20T04:42:38.936Z,99334.06
2019-06-20T04:45:13.144Z,99349.70
2019-06-20T04:47:39.597Z,99351.06
2019-06-20T04:50:05.833Z,99360.02
2019-06-20T04:52:32.278Z,99361.39
2019-06-20T04:54:58.819Z,99362.41
2019-06-20T04:57:24.959Z,99362.55
2019-06-20T04:59:53.096Z,99385.13
2019-06-20T05:02:21.147Z,99388.25
2019-06-20T05:04:47.390Z,99388.45
2019-06-20T05:07:18.072Z,99393.86
2019-06-20T05:09:46.473Z,99406.75
2019-06-20T05:12:12.922Z,99409.99
2019-06-20T05:14:39.398Z,99411.47
2019-06-20T05:17:07.260Z,99417.74
2019-06-20T05:19:33.697Z,99417.89
2019-06-20T05:21:59.843Z,99426.85
2019-06-20T05:24:26.078Z,99426.22
2019-06-20T05:26:52.239Z,99427.88
2019-06-20T05:29:18.812Z,99432.36
2019-06-20T05:31:44.981Z,99450.09
2019-06-20T05:34:11.323Z,99457.09
2019-06-20T05:36:37.481Z,99451.03
2019-06-20T05:39:05.555Z,99465.98
2019-06-20T05:41:32.134Z,99469.92
2019-06-20T05:43:58.281Z,99478.53
2019-06-20T05:46:24.571Z,99481.16
2019-06-20T05:48:51.026Z,99475.19
2019-06-20T05:51:17.247Z,99472.64
2019-06-20T05:53:43.773Z,99473.06
2019-06-20T05:56:11.471Z,99453.47
2019-06-20T05:58:38.024Z,99461.14
2019-06-20T06:01:04.243Z,99453.34
2019-06-20T06:03:30.690Z,99451.38
2019-06-20T06:05:57.392Z,99452.11
2019-06-20T06:08:23.617Z,99462.59
2019-06-20T06:10:50.213Z,99487.28
2019-06-20T06:13:16.664Z,99496.82
2019-06-20T06:15:43.181Z,99496.70
2019-06-20T06:18:09.345Z,99509.14
2019-06-20T06:20:35.650Z,99500.05
2019-06-20T06:23:01.791Z,99499.98
2019-06-20T06:25:28.081Z,99496.33
2019-06-20T06:27:54.342Z,99502.84
2019-06-20T06:30:20.694Z,99502.28
2019-06-20T06:32:46.851Z,99504.73
2019-06-20T06:35:14.959Z,99506.41
2019-06-20T06:37:41.115Z,99506.59
2019-06-20T06:40:09.835Z,99510.78
2019-06-20T06:42:35.982Z,99507.88
2019-06-20T06:45:06.139Z,99487.28
2019-06-20T06:47:32.504Z,99494.28
2019-06-20T06:49:58.650Z,99492.97
2019-06-20T06:52:25.393Z,99497.33
2019-06-20T06:54:51.587Z,99499.59
2019-06-20T06:57:17.858Z,99494.52
2019-06-20T06:59:47.195Z,99494.50
2019-06-20T07:02:13.732Z,99489.78
2019-06-20T07:04:40.177Z,99492.88
2019-06-20T07:07:06.712Z,99485.26
2019-06-20T07:09:35.418Z,99480.14
2019-06-20T07:12:01.505Z,99484.59
2019-06-20T07:14:27.658Z,99485.66
2019-06-20T07:17:00.247Z,99475.86
2019-06-20T07:19:21.954Z,99476.89
2019-06-20T07:21:48.125Z,99479.75
2019-06-20T07:24:14.321Z,99482.28
2019-06-20T07:26:40.913Z,99473.64
2019-06-20T07:29:07.060Z,99468.97
2019-06-20T07:31:33.423Z,99472.57
2019-06-20T07:33:59.573Z,99474.65
2019-06-20T07:36:26.263Z,99479.36
2019-06-20T07:38:52.581Z,99480.74
2019-06-20T07:41:18.911Z,99481.04
2019-06-20T07:43:45.170Z,99494.86
2019-06-20T07:46:11.302Z,99483.25
2019-06-20T07:48:37.813Z,99473.49
2019-06-20T07:51:03.956Z,99474.09
2019-06-20T07:53:30.183Z,99480.45
2019-06-20T07:55:56.322Z,99488.95
2019-06-20T07:58:22.557Z,99503.98
2019-06-20T08:00:48.716Z,99511.16
2019-06-20T08:03:15.295Z,99517.84
2019-06-20T08:05:41.449Z,99522.34
2019-06-20T08:08:09.125Z,99529.41
2019-06-20T08:10:35.439Z,99531.06
2019-06-20T08:13:01.826Z,99534.98
2019-06-20T08:15:27.977Z,99537.09
2019-06-20T08:17:54.486Z,99525.56
2019-06-20T08:20:21.221Z,99513.84
2019-06-20T08:22:47.515Z,99501.34
2019-06-20T08:25:16.556Z,99489.63
2019-06-20T08:27:49.340Z,99482.15
2019-06-20T08:30:19.279Z,99484.86
2019-06-20T08:32:45.662Z,99484.75
2019-06-20T08:35:12.239Z,99493.99
2019-06-20T08:37:38.413Z,99497.59
2019-06-20T08:40:15.498Z,99509.46
2019-06-20T08:42:41.629Z,99504.22
2019-06-20T08:45:12.392Z,99505.23
2019-06-20T08:47:38.556Z,99502.64
2019-06-20T08:50:06.160Z,99506.42
2019-06-20T08:52:32.487Z,99505.76
2019-06-20T08:54:59.583Z,99509.50
2019-06-20T08:57:26.188Z,99506.59
2019-06-20T08:59:52.469Z,99512.52
2019-06-20T09:02:19.219Z,99514.34
2019-06-20T09:04:45.804Z,99517.69
2019-06-20T09:07:11.970Z,99518.84
2019-06-20T09:09:38.468Z,99517.06
2019-06-20T09:12:05.262Z,99512.26
2019-06-20T09:14:31.710Z,99511.36
2019-06-20T09:16:59.293Z,99514.44
2019-06-20T09:19:26.063Z,99510.72
2019-06-20T09:21:53.898Z,99505.20
2019-06-20T09:24:20.427Z,99512.19
2019-06-20T09:26:46.573Z,99514.24
2019-06-20T09:29:13.255Z,99519.81
2019-06-20T09:31:39.436Z,99513.61
2019-06-20T09:34:05.782Z,99515.31
2019-06-20T09:36:32.028Z,99516.77
2019-06-20T09:38:59.585Z,99515.94
2019-06-20T09:41:25.900Z,99515.31
2019-06-20T09:43:54.212Z,99513.91
2019-06-20T09:46:20.508Z,99520.63
2019-06-20T09:48:46.663Z,99523.84
2019-06-20T09:51:12.953Z,99519.83
2019-06-20T09:53:39.118Z,99523.55
2019-06-20T09:56:05.629Z,99524.12
2019-06-20T09:58:31.834Z,99530.67
2019-06-20T10:01:01.969Z,99523.11
2019-06-20T10:03:28.114Z,99529.66
2019-06-20T10:05:54.744Z,99525.56
2019-06-20T10:08:21.079Z,99529.36
2019-06-20T10:10:49.351Z,99527.55
2019-06-20T10:13:15.818Z,99525.28
2019-06-20T10:15:42.370Z,99527.39
2019-06-20T10:18:08.523Z,99522.06
2019-06-20T10:20:39.038Z,99525.80
2019-06-20T10:23:05.519Z,99529.36
2019-06-20T10:25:32.122Z,99528.11
2019-06-20T10:27:58.283Z,99521.84
2019-06-20T10:30:25.979Z,99520.34
2019-06-20T10:32:53.245Z,99518.61
2019-06-20T10:35:20.825Z,99522.91
2019-06-20T10:37:48.348Z,99518.50
2019-06-20T10:40:17.875Z,99515.48
2019-06-20T10:42:44.976Z,99517.89
2019-06-20T10:45:22.807Z,99514.20
2019-06-20T10:47:50.947Z,99516.08
2019-06-20T10:50:18.490Z,99516.73
2019-06-20T10:52:45.296Z,99527.05
2019-06-20T10:55:12.006Z,99531.11
2019-06-20T10:57:38.229Z,99527.09
2019-06-20T11:00:10.512Z,99526.65
2019-06-20T11:02:37.541Z,99525.15
2019-06-20T11:05:05.293Z,99526.17
2019-06-20T11:07:31.636Z,99522.47
2019-06-20T11:09:58.030Z,99520.69
2019-06-20T11:12:24.405Z,99525.82
2019-06-20T11:14:50.566Z,99527.66
2019-06-20T11:17:16.803Z,99520.97
2019-06-20T11:19:43.768Z,99518.33
2019-06-20T11:22:10.172Z,99513.52
2019-06-20T11:24:37.429Z,99512.61
2019-06-20T11:27:04.869Z,99508.92
2019-06-20T11:29:31.272Z,99506.95
2019-06-20T11:31:57.674Z,99509.88
2019-06-20T11:34:23.863Z,99515.02
2019-06-20T11:36:50.108Z,99504.72
2019-06-20T11:39:16.272Z,99501.83
2019-06-20T11:41:43.676Z,99492.78
2019-06-20T11:44:10.310Z,99495.97
2019-06-20T11:46:37.006Z,99493.16
2019-06-20T11:49:04.103Z,99484.78
2019-06-20T11:51:30.265Z,99490.49
2019-06-20T11:53:56.901Z,99491.37
2019-06-20T11:56:23.085Z,99492.91
2019-06-20T11:58:49.341Z,99486.81
2019-06-20T12:01:15.563Z,99493.61
2019-06-20T12:03:44.595Z,99497.13
2019-06-20T12:06:11.354Z,99502.48
2019-06-20T12:08:39.079Z,99500.16
2019-06-20T12:11:05.759Z,99496.01
2019-06-20T12:13:32.046Z,99489.45
2019-06-20T12:15:58.228Z,99487.87
2019-06-20T12:18:24.523Z,99481.67
2019-06-20T12:20:50.730Z,99477.28
2019-06-20T12:23:16.990Z,99479.98
2019-06-20T12:25:44.269Z,99493.27
2019-06-20T12:28:10.779Z,99495.05
2019-06-20T12:30:38.417Z,99493.33
2019-06-20T12:33:05.308Z,99488.70
2019-06-20T12:35:31.492Z,99488.44
2019-06-20T12:37:57.865Z,99488.55
2019-06-20T12:40:24.426Z,99492.63
2019-06-20T12:42:51.004Z,99499.70
2019-06-20T12:45:17.481Z,99500.92
2019-06-20T12:47:44.235Z,99510.72
2019-06-20T12:50:13.109Z,99505.46
2019-06-20T12:52:40.702Z,99508.28
2019-06-20T12:55:10.153Z,99514.02
2019-06-20T12:57:38.495Z,99517.31
2019-06-20T13:00:11.179Z,99507.11
2019-06-20T13:02:38.688Z,99496.96
2019-06-20T13:05:06.394Z,99497.70
2019-06-20T13:07:32.545Z,99494.29
2019-06-20T13:09:58.907Z,99495.18
2019-06-20T13:12:25.673Z,99492.03
2019-06-20T13:14:51.973Z,99497.81
2019-06-20T13:17:18.266Z,99509.17
2019-06-20T13:19:46.438Z,99506.14
2019-06-20T13:22:12.915Z,99502.40
2019-06-20T13:24:39.729Z,99501.17
2019-06-20T13:27:07.136Z,99498.35
2019-06-20T13:29:33.718Z,99496.16
2019-06-20T13:32:04.411Z,99490.45
2019-06-20T13:34:28.087Z,99491.13
2019-06-20T13:36:54.311Z,99490.19
2019-06-20T13:39:20.544Z,99490.34
2019-06-20T13:41:47.826Z,99495.56
2019-06-20T13:44:16.093Z,99496.34
2019-06-20T13:46:44.510Z,99502.48
2019-06-20T13:49:11.153Z,99500.03
2019-06-20T13:51:39.946Z,99508.05
2019-06-20T13:54:06.196Z,99503.09
2019-06-20T13:56:32.372Z,99505.80
2019-06-20T13:58:59.083Z,99497.78
2019-06-20T14:01:25.522Z,99491.98
2019-06-20T14:03:51.697Z,99485.12
2019-06-20T14:06:17.979Z,99485.80
2019-06-20T14:08:45.960Z,99481.39
2019-06-20T14:11:13.070Z,99479.73
2019-06-20T14:13:41.095Z,99473.09
2019-06-20T14:16:07.953Z,99474.06
2019-06-20T14:18:34.407Z,99469.39
2019-06-20T14:21:01.347Z,99474.38
2019-06-20T14:23:27.876Z,99472.76
2019-06-20T14:25:54.164Z,99467.37
2019-06-20T14:28:20.340Z,99464.25
2019-06-20T14:30:48.349Z,99457.12
2019-06-20T14:33:14.651Z,99449.55
2019-06-20T14:35:43.509Z,99447.23
2019-06-20T14:38:09.694Z,99449.06
2019-06-20T14:40:35.968Z,99442.77
2019-06-20T14:43:02.126Z,99442.20
2019-06-20T14:45:28.445Z,99437.41
2019-06-20T14:47:55.240Z,99443.16
2019-06-20T14:50:22.182Z,99442.95
2019-06-20T14:52:50.020Z,99438.33
2019-06-20T14:55:17.869Z,99441.62
2019-06-20T14:57:46.953Z,99443.89
2019-06-20T15:00:17.827Z,99436.42
2019-06-20T15:02:45.844Z,99434.64
2019-06-20T15:05:15.133Z,99438.95
2019-06-20T15:07:41.770Z,99434.82
2019-06-20T15:10:08.064Z,99432.98
2019-06-20T15:12:34.318Z,99429.60
2019-06-20T15:15:00.480Z,99426.84
2019-06-20T15:17:26.798Z,99427.02
2019-06-20T15:19:54.261Z,99422.27
2019-06-20T15:22:20.795Z,99419.67
2019-06-20T15:24:50.012Z,99427.61
2019-06-20T15:27:15.201Z,99425.71
2019-06-20T15:29:41.371Z,99423.49
2019-06-20T15:32:07.666Z,99418.75
2019-06-20T15:34:33.828Z,99414.69
2019-06-20T15:37:00.617Z,99407.90
2019-06-20T15:39:27.521Z,99404.24
2019-06-20T15:41:54.301Z,99401.16
2019-06-20T15:44:20.617Z,99396.24
2019-06-20T15:46:48.319Z,99399.00
2019-06-20T15:49:16.296Z,99395.83
2019-06-20T15:51:42.764Z,99395.12
2019-06-20T15:54:08.968Z,99394.21
2019-06-20T15:56:35.328Z,99394.39
2019-06-20T15:59:01.721Z,99391.73
2019-06-20T16:01:27.907Z,99391.11
2019-06-20T16:03:54.517Z,99385.73
2019-06-20T16:06:20.699Z,99389.47
2019-06-20T16:08:46.971Z,99390.00
2019-06-20T16:11:13.607Z,99396.55
2019-06-20T16:13:40.028Z,99397.79
2019-06-20T16:16:06.182Z,99397.33
2019-06-20T16:18:32.499Z,99406.20
2019-06-20T16:20:58.965Z,99408.59
2019-06-20T16:23:25.292Z,99413.94
2019-06-20T16:25:51.527Z,99418.23
2019-06-20T16:28:17.849Z,99423.17
2019-06-20T16:30:44.119Z,99424.11
2019-06-20T16:33:24.065Z,99421.95
2019-06-20T16:35:39.101Z,99419.23
2019-06-20T16:38:05.437Z,99423.75
2019-06-20T16:40:44.428Z,99423.70
2019-06-20T16:43:10.894Z,99427.56
2019-06-20T16:45:37.153Z,99428.58
2019-06-20T16:48:03.843Z,99427.14
2019-06-20T16:50:30.002Z,99429.86
2019-06-20T16:52:56.700Z,99434.63
2019-06-20T16:55:22.856Z,99443.17
2019-06-20T16:57:50.033Z,99444.10
2019-06-20T17:00:16.712Z,99440.19
2019-06-20T17:02:42.974Z,99444.44
2019-06-20T17:05:11.433Z,99442.20
2019-06-20T17:07:37.806Z,99436.40
2019-06-20T17:10:05.681Z,99434.36
2019-06-20T17:12:31.927Z,99428.11
2019-06-20T17:14:58.294Z,99426.33
2019-06-20T17:17:24.469Z,99436.74
2019-06-20T17:19:51.176Z,99437.23
2019-06-20T17:22:17.337Z,99446.91
2019-06-20T17:24:44.008Z,99450.69
2019-06-20T17:27:10.207Z,99451.16
2019-06-20T17:29:36.892Z,99452.69
2019-06-20T17:32:03.271Z,99456.81
2019-06-20T17:34:29.850Z,99459.20
2019-06-20T17:36:56.004Z,99461.67
2019-06-20T17:39:22.629Z,99460.05
2019-06-20T17:41:55.254Z,99459.75
2019-06-20T17:44:17.391Z,99457.83
2019-06-20T17:46:43.894Z,99449.50
2019-06-20T17:49:10.436Z,99450.19
2019-06-20T17:51:36.802Z,99454.88
2019-06-20T17:54:03.845Z,99460.43
2019-06-20T17:56:30.010Z,99462.98
2019-06-20T17:58:56.630Z,99470.08
2019-06-20T18:01:23.157Z,99477.90
2019-06-20T18:03:49.427Z,99484.02
2019-06-20T18:06:15.628Z,99484.14
2019-06-20T18:08:42.015Z,99479.00
2019-06-20T18:11:08.678Z,99475.30
2019-06-20T18:13:35.138Z,99476.52
2019-06-20T18:16:01.417Z,99479.91
2019-06-20T18:18:27.591Z,99482.95
2019-06-20T18:20:53.913Z,99493.48
2019-06-20T18:23:20.086Z,99491.47
2019-06-20T18:25:46.341Z,99487.12
2019-06-20T18:28:12.783Z,99494.22
2019-06-20T18:30:42.116Z,99503.83
2019-06-20T18:33:08.815Z,99497.59
2019-06-20T18:35:35.492Z,99502.88
2019-06-20T18:38:02.100Z,99505.58
2019-06-20T18:40:28.355Z,99504.06
2019-06-20T18:42:54.553Z,99505.94
2019-06-20T18:45:21.739Z,99511.14
2019-06-20T18:47:47.913Z,99515.25
2019-06-20T18:50:14.498Z,99519.23
2019-06-20T18:52:51.646Z,99519.31
2019-06-20T18:55:10.824Z,99530.30
2019-06-20T18:57:37.199Z,99534.34
2019-06-20T19:00:11.473Z,99529.86
2019-06-20T19:02:37.847Z,99528.40
2019-06-20T19:05:06.706Z,99536.99
2019-06-20T19:07:33.215Z,99537.48
2019-06-20T19:09:59.943Z,99552.05
2019-06-20T19:12:26.296Z,99550.55
2019-06-20T19:14:52.883Z,99555.78
2019-06-20T19:17:19.173Z,99555.98
2019-06-20T19:19:45.392Z,99558.51
2019-06-20T19:22:11.623Z,99565.13
2019-06-20T19:24:38.061Z,99567.23
2019-06-20T19:27:04.367Z,99572.12
2019-06-20T19:29:30.581Z,99566.02
2019-06-20T19:31:56.913Z,99568.64
2019-06-20T19:34:23.081Z,99568.81
2019-06-20T19:36:50.325Z,99572.04
2019-06-20T19:39:16.494Z,99574.72
2019-06-20T19:41:43.038Z,99574.49
2019-06-20T19:44:09.459Z,99575.52
2019-06-20T19:46:35.874Z,99579.55
2019-06-20T19:49:02.302Z,99576.70
2019-06-20T19:51:28.752Z,99582.13
2019-06-20T19:53:55.250Z,99588.09
2019-06-20T19:56:21.522Z,99595.38
2019-06-20T19:58:47.813Z,99595.41
2019-06-20T20:01:14.090Z,99595.89
2019-06-20T20:03:40.257Z,99598.66
2019-06-20T20:06:06.776Z,99601.41
2019-06-20T20:08:32.915Z,99609.06
2019-06-20T20:10:59.542Z,99609.84
2019-06-20T20:13:25.718Z,99608.15
2019-06-20T20:15:51.860Z,99601.57
2019-06-20T20:18:18.442Z,99600.45
2019-06-20T20:20:47.542Z,99614.97
2019-06-20T20:23:14.107Z,99629.83
2019-06-20T20:25:40.644Z,99631.00
2019-06-20T20:28:07.280Z,99645.34
2019-06-20T20:30:33.457Z,99654.69
2019-06-20T20:33:01.965Z,99661.34
2019-06-20T20:35:35.455Z,99661.73
2019-06-20T20:37:56.798Z,99673.55
2019-06-20T20:40:23.492Z,99699.94
2019-06-20T20:42:50.050Z,99709.07
2019-06-20T20:45:18.013Z,99722.51
2019-06-20T20:47:44.267Z,99717.32
2019-06-20T20:50:12.091Z,99690.33
2019-06-20T20:52:38.681Z,99671.28
2019-06-20T20:55:06.561Z,99691.41
2019-06-20T20:57:32.832Z,99695.86
2019-06-20T20:59:59.318Z,99715.89
2019-06-20T21:02:25.576Z,99717.20
2019-06-20T21:04:51.732Z,99722.72
2019-06-20T21:07:18.350Z,99736.91
2019-06-20T21:09:44.885Z,99756.05
2019-06-20T21:12:11.520Z,99757.56
2019-06-20T21:14:37.793Z,99762.70
2019-06-20T21:17:04.071Z,99756.61
2019-06-20T21:19:30.739Z,99759.38
2019-06-20T21:21:56.913Z,99761.45
2019-06-20T21:24:23.163Z,99760.95
2019-06-20T21:26:50.296Z,99757.95
2019-06-20T21:29:17.322Z,99757.60
2019-06-20T21:31:43.771Z,99759.63
2019-06-20T21:34:10.125Z,99753.19
2019-06-20T21:36:36.383Z,99754.42
2019-06-20T21:39:06.244Z,99765.96
2019-06-20T21:41:32.414Z,99767.38
2019-06-20T21:43:59.033Z,99765.20
2019-06-20T21:46:25.212Z,99766.98
2019-06-20T21:48:51.794Z,99765.95
2019-06-20T21:51:18.257Z,99768.34
2019-06-20T21:53:44.508Z,99764.43
2019-06-20T21:56:10.689Z,99763.77
2019-06-20T21:58:37.375Z,99761.27
2019-06-20T22:01:04.351Z,99759.27
2019-06-20T22:03:30.829Z,99747.98
2019-06-20T22:05:57.020Z,99748.55
2019-06-20T22:08:23.640Z,99745.98
2019-06-20T22:10:50.014Z,99747.03
2019-06-20T22:13:16.238Z,99747.31
2019-06-20T22:15:42.946Z,99740.69
2019-06-20T22:18:09.142Z,99738.08
2019-06-20T22:20:35.458Z,99733.74
2019-06-20T22:23:01.957Z,99745.84
2019-06-20T22:25:28.356Z,99746.95
2019-06-20T22:27:54.557Z,99759.52
2019-06-20T22:30:43.939Z,99758.05
2019-06-20T22:33:10.433Z,99768.55
2019-06-20T22:35:36.711Z,99770.73
2019-06-20T22:38:02.979Z,99771.25
2019-06-20T22:40:29.314Z,99773.02
2019-06-20T22:42:55.466Z,99768.38
2019-06-20T22:45:21.854Z,99772.68
2019-06-20T22:47:48.346Z,99775.81
2019-06-20T22:50:14.944Z,99780.08
2019-06-20T22:52:41.102Z,99778.97
2019-06-20T22:55:07.937Z,99775.12
2019-06-20T22:57:34.508Z,99769.14
2019-06-20T23:00:00.810Z,99769.66
2019-06-20T23:02:26.961Z,99777.16
2019-06-20T23:04:53.273Z,99779.47
2019-06-20T23:07:19.438Z,99783.99
2019-06-20T23:09:45.743Z,99792.53
2019-06-20T23:12:12.343Z,99791.89
2019-06-20T23:14:38.971Z,99794.69
2019-06-20T23:17:05.124Z,99793.50
2019-06-20T23:19:31.862Z,99791.96
2019-06-20T23:21:58.037Z,99795.66
2019-06-20T23:24:24.603Z,99793.35
2019-06-20T23:26:50.868Z,99797.59
2019-06-20T23:29:22.955Z,99812.61
2019-06-20T23:31:52.510Z,99804.77
2019-06-20T23:34:18.973Z,99806.09
2019-06-20T23:36:45.491Z,99815.95
2019-06-20T23:39:11.650Z,99813.58
2019-06-20T23:41:37.923Z,99813.58
2019-06-20T23:44:04.087Z,99815.19
2019-06-20T23:46:30.405Z,99812.67
2019-06-20T23:48:56.583Z,99803.80
2019-06-20T23:51:25.684Z,99801.17
2019-06-20T23:53:52.010Z,99805.96
2019-06-20T23:56:19.667Z,99803.19
2019-06-20T23:58:45.827Z,99810.03
